sensor_id;sensor_type;location;lat;lon;timestamp;P1;durP1;ratioP1;P2;durP2;ratioP2
56457;SDS011;42360;42.918;12.366;2023-05-27T00:00:16;5.00;;;3.33;;
56457;SDS011;42360;42.918;12.366;2023-05-27T00:02:41;4.40;;;3.67;;
56457;SDS011;42360;42.918;12.366;2023-05-27T00:05:07;6.10;;;3.97;;
56457;SDS011;42360;42.918;12.366;2023-05-27T00:07:33;5.15;;;3.50;;
56457;SDS011;42360;42.918;12.366;2023-05-27T00:09:59;5.10;;;3.65;;
56457;SDS011;42360;42.918;12.366;2023-05-27T00:12:24;8.32;;;3.65;;
56457;SDS011;42360;42.918;12.366;2023-05-27T00:14:50;3.95;;;3.47;;
56457;SDS011;42360;42.918;12.366;2023-05-27T00:17:16;5.85;;;3.55;;
56457;SDS011;42360;42.918;12.366;2023-05-27T00:19:42;4.72;;;3.40;;
56457;SDS011;42360;42.918;12.366;2023-05-27T00:22:12;5.53;;;3.63;;
56457;SDS011;42360;42.918;12.366;2023-05-27T00:24:38;4.55;;;3.47;;
56457;SDS011;42360;42.918;12.366;2023-05-27T00:27:07;5.70;;;3.60;;
56457;SDS011;42360;42.918;12.366;2023-05-27T00:29:34;4.97;;;3.70;;
56457;SDS011;42360;42.918;12.366;2023-05-27T00:32:00;5.50;;;3.20;;
56457;SDS011;42360;42.918;12.366;2023-05-27T00:34:33;4.03;;;3.60;;
56457;SDS011;42360;42.918;12.366;2023-05-27T00:36:59;3.80;;;3.20;;
56457;SDS011;42360;42.918;12.366;2023-05-27T00:39:25;3.88;;;3.20;;
56457;SDS011;42360;42.918;12.366;2023-05-27T00:41:51;4.70;;;3.30;;
56457;SDS011;42360;42.918;12.366;2023-05-27T00:44:17;5.78;;;4.13;;
56457;SDS011;42360;42.918;12.366;2023-05-27T00:46:43;4.75;;;3.78;;
56457;SDS011;42360;42.918;12.366;2023-05-27T00:49:09;4.25;;;3.40;;
56457;SDS011;42360;42.918;12.366;2023-05-27T00:51:35;4.35;;;3.53;;
56457;SDS011;42360;42.918;12.366;2023-05-27T00:54:01;4.07;;;3.63;;
56457;SDS011;42360;42.918;12.366;2023-05-27T00:56:27;6.50;;;3.47;;
56457;SDS011;42360;42.918;12.366;2023-05-27T00:58:52;5.93;;;3.85;;
56457;SDS011;42360;42.918;12.366;2023-05-27T01:01:18;4.80;;;3.22;;
56457;SDS011;42360;42.918;12.366;2023-05-27T01:03:44;5.90;;;3.67;;
56457;SDS011;42360;42.918;12.366;2023-05-27T01:11:54;3.65;;;3.22;;
56457;SDS011;42360;42.918;12.366;2023-05-27T01:14:22;4.72;;;3.40;;
56457;SDS011;42360;42.918;12.366;2023-05-27T01:16:49;4.32;;;3.60;;
56457;SDS011;42360;42.918;12.366;2023-05-27T01:19:36;4.95;;;3.35;;
56457;SDS011;42360;42.918;12.366;2023-05-27T01:22:13;4.35;;;3.10;;
56457;SDS011;42360;42.918;12.366;2023-05-27T01:24:39;4.18;;;3.78;;
56457;SDS011;42360;42.918;12.366;2023-05-27T01:27:09;6.65;;;3.97;;
56457;SDS011;42360;42.918;12.366;2023-05-27T01:29:40;5.60;;;3.92;;
56457;SDS011;42360;42.918;12.366;2023-05-27T01:37:21;6.90;;;3.72;;
56457;SDS011;42360;42.918;12.366;2023-05-27T01:39:47;4.70;;;3.47;;
56457;SDS011;42360;42.918;12.366;2023-05-27T01:42:14;4.80;;;3.53;;
56457;SDS011;42360;42.918;12.366;2023-05-27T01:44:41;4.32;;;3.60;;
56457;SDS011;42360;42.918;12.366;2023-05-27T01:47:07;4.35;;;3.75;;
56457;SDS011;42360;42.918;12.366;2023-05-27T01:49:33;4.80;;;3.88;;
56457;SDS011;42360;42.918;12.366;2023-05-27T01:52:00;7.38;;;3.40;;
56457;SDS011;42360;42.918;12.366;2023-05-27T01:54:26;4.85;;;3.63;;
56457;SDS011;42360;42.918;12.366;2023-05-27T01:56:51;5.60;;;3.58;;
56457;SDS011;42360;42.918;12.366;2023-05-27T01:59:17;5.53;;;3.83;;
56457;SDS011;42360;42.918;12.366;2023-05-27T02:01:42;6.18;;;3.92;;
56457;SDS011;42360;42.918;12.366;2023-05-27T02:04:08;3.78;;;3.28;;
56457;SDS011;42360;42.918;12.366;2023-05-27T02:06:34;4.60;;;3.63;;
56457;SDS011;42360;42.918;12.366;2023-05-27T02:09:01;5.85;;;4.35;;
56457;SDS011;42360;42.918;12.366;2023-05-27T02:11:27;4.28;;;3.22;;
56457;SDS011;42360;42.918;12.366;2023-05-27T02:13:53;4.97;;;3.60;;
56457;SDS011;42360;42.918;12.366;2023-05-27T02:16:18;5.43;;;3.60;;
56457;SDS011;42360;42.918;12.366;2023-05-27T02:18:47;5.15;;;3.53;;
56457;SDS011;42360;42.918;12.366;2023-05-27T02:21:14;5.07;;;3.55;;
56457;SDS011;42360;42.918;12.366;2023-05-27T02:23:40;4.43;;;3.38;;
56457;SDS011;42360;42.918;12.366;2023-05-27T02:26:05;5.07;;;4.22;;
56457;SDS011;42360;42.918;12.366;2023-05-27T02:28:31;5.03;;;3.83;;
56457;SDS011;42360;42.918;12.366;2023-05-27T02:30:57;5.22;;;3.58;;
56457;SDS011;42360;42.918;12.366;2023-05-27T02:33:23;6.13;;;3.35;;
56457;SDS011;42360;42.918;12.366;2023-05-27T02:35:49;6.10;;;3.67;;
56457;SDS011;42360;42.918;12.366;2023-05-27T02:38:14;5.80;;;3.88;;
56457;SDS011;42360;42.918;12.366;2023-05-27T02:40:40;5.40;;;3.58;;
56457;SDS011;42360;42.918;12.366;2023-05-27T02:43:05;4.47;;;3.05;;
56457;SDS011;42360;42.918;12.366;2023-05-27T02:45:31;4.38;;;3.08;;
56457;SDS011;42360;42.918;12.366;2023-05-27T02:47:57;5.90;;;3.60;;
56457;SDS011;42360;42.918;12.366;2023-05-27T02:50:26;4.05;;;3.22;;
56457;SDS011;42360;42.918;12.366;2023-05-27T02:52:51;5.32;;;3.60;;
56457;SDS011;42360;42.918;12.366;2023-05-27T02:55:17;5.10;;;3.20;;
56457;SDS011;42360;42.918;12.366;2023-05-27T02:57:42;5.60;;;3.88;;
56457;SDS011;42360;42.918;12.366;2023-05-27T03:00:08;4.32;;;3.33;;
56457;SDS011;42360;42.918;12.366;2023-05-27T03:02:36;8.10;;;4.03;;
56457;SDS011;42360;42.918;12.366;2023-05-27T03:05:02;5.72;;;3.55;;
56457;SDS011;42360;42.918;12.366;2023-05-27T03:07:28;5.63;;;3.67;;
56457;SDS011;42360;42.918;12.366;2023-05-27T03:09:54;7.45;;;3.40;;
56457;SDS011;42360;42.918;12.366;2023-05-27T03:12:21;5.03;;;3.33;;
56457;SDS011;42360;42.918;12.366;2023-05-27T03:14:46;3.83;;;3.03;;
56457;SDS011;42360;42.918;12.366;2023-05-27T03:17:12;4.78;;;3.88;;
56457;SDS011;42360;42.918;12.366;2023-05-27T03:19:37;6.13;;;3.58;;
56457;SDS011;42360;42.918;12.366;2023-05-27T03:22:03;5.28;;;4.35;;
56457;SDS011;42360;42.918;12.366;2023-05-27T03:24:29;6.60;;;3.97;;
56457;SDS011;42360;42.918;12.366;2023-05-27T03:26:54;5.47;;;4.20;;
56457;SDS011;42360;42.918;12.366;2023-05-27T03:29:20;7.00;;;3.70;;
56457;SDS011;42360;42.918;12.366;2023-05-27T03:31:46;5.65;;;4.07;;
56457;SDS011;42360;42.918;12.366;2023-05-27T03:34:11;6.13;;;3.75;;
56457;SDS011;42360;42.918;12.366;2023-05-27T03:36:37;5.18;;;3.42;;
56457;SDS011;42360;42.918;12.366;2023-05-27T03:39:03;6.35;;;4.10;;
56457;SDS011;42360;42.918;12.366;2023-05-27T03:41:30;6.05;;;3.95;;
56457;SDS011;42360;42.918;12.366;2023-05-27T03:43:56;6.85;;;3.63;;
56457;SDS011;42360;42.918;12.366;2023-05-27T03:46:22;4.22;;;3.60;;
56457;SDS011;42360;42.918;12.366;2023-05-27T03:48:47;6.45;;;3.83;;
56457;SDS011;42360;42.918;12.366;2023-05-27T03:51:13;6.18;;;3.60;;
56457;SDS011;42360;42.918;12.366;2023-05-27T03:53:38;4.13;;;3.35;;
56457;SDS011;42360;42.918;12.366;2023-05-27T03:56:04;6.47;;;4.07;;
56457;SDS011;42360;42.918;12.366;2023-05-27T03:58:30;4.88;;;3.80;;
56457;SDS011;42360;42.918;12.366;2023-05-27T04:00:56;7.25;;;4.57;;
56457;SDS011;42360;42.918;12.366;2023-05-27T04:03:21;5.38;;;3.60;;
56457;SDS011;42360;42.918;12.366;2023-05-27T04:05:47;6.05;;;4.07;;
56457;SDS011;42360;42.918;12.366;2023-05-27T04:08:12;5.65;;;4.15;;
56457;SDS011;42360;42.918;12.366;2023-05-27T04:10:38;6.60;;;4.18;;
56457;SDS011;42360;42.918;12.366;2023-05-27T04:13:04;7.15;;;4.35;;
56457;SDS011;42360;42.918;12.366;2023-05-27T04:15:30;5.43;;;3.83;;
56457;SDS011;42360;42.918;12.366;2023-05-27T04:17:55;6.18;;;3.63;;
56457;SDS011;42360;42.918;12.366;2023-05-27T04:20:21;6.63;;;4.10;;
56457;SDS011;42360;42.918;12.366;2023-05-27T04:22:47;5.78;;;4.80;;
56457;SDS011;42360;42.918;12.366;2023-05-27T04:25:12;6.40;;;4.38;;
56457;SDS011;42360;42.918;12.366;2023-05-27T04:27:38;4.85;;;3.95;;
56457;SDS011;42360;42.918;12.366;2023-05-27T04:30:06;8.25;;;3.80;;
56457;SDS011;42360;42.918;12.366;2023-05-27T04:32:32;4.90;;;3.47;;
56457;SDS011;42360;42.918;12.366;2023-05-27T04:35:02;7.75;;;3.83;;
56457;SDS011;42360;42.918;12.366;2023-05-27T04:37:34;5.88;;;3.40;;
56457;SDS011;42360;42.918;12.366;2023-05-27T04:40:04;5.20;;;3.65;;
56457;SDS011;42360;42.918;12.366;2023-05-27T04:42:31;4.45;;;3.40;;
56457;SDS011;42360;42.918;12.366;2023-05-27T04:44:57;7.25;;;4.18;;
56457;SDS011;42360;42.918;12.366;2023-05-27T04:47:23;5.72;;;4.15;;
56457;SDS011;42360;42.918;12.366;2023-05-27T04:49:49;6.57;;;3.90;;
56457;SDS011;42360;42.918;12.366;2023-05-27T04:52:14;5.80;;;4.40;;
56457;SDS011;42360;42.918;12.366;2023-05-27T04:54:39;5.85;;;4.10;;
56457;SDS011;42360;42.918;12.366;2023-05-27T04:57:05;5.68;;;4.28;;
56457;SDS011;42360;42.918;12.366;2023-05-27T04:59:31;7.45;;;4.65;;
56457;SDS011;42360;42.918;12.366;2023-05-27T05:02:33;5.60;;;4.05;;
56457;SDS011;42360;42.918;12.366;2023-05-27T05:05:06;8.70;;;4.50;;
56457;SDS011;42360;42.918;12.366;2023-05-27T05:07:33;7.80;;;4.30;;
56457;SDS011;42360;42.918;12.366;2023-05-27T05:10:03;8.40;;;4.72;;
56457;SDS011;42360;42.918;12.366;2023-05-27T05:12:30;5.40;;;4.10;;
56457;SDS011;42360;42.918;12.366;2023-05-27T05:14:55;7.57;;;4.05;;
56457;SDS011;42360;42.918;12.366;2023-05-27T05:17:22;7.20;;;4.10;;
56457;SDS011;42360;42.918;12.366;2023-05-27T05:19:49;6.80;;;4.07;;
56457;SDS011;42360;42.918;12.366;2023-05-27T05:22:16;7.60;;;4.47;;
56457;SDS011;42360;42.918;12.366;2023-05-27T05:24:46;6.82;;;4.15;;
56457;SDS011;42360;42.918;12.366;2023-05-27T05:27:12;4.93;;;3.42;;
56457;SDS011;42360;42.918;12.366;2023-05-27T05:29:38;6.20;;;4.10;;
56457;SDS011;42360;42.918;12.366;2023-05-27T05:32:04;4.32;;;3.92;;
56457;SDS011;42360;42.918;12.366;2023-05-27T05:34:30;6.45;;;4.43;;
56457;SDS011;42360;42.918;12.366;2023-05-27T05:36:55;4.38;;;3.80;;
56457;SDS011;42360;42.918;12.366;2023-05-27T05:39:21;6.40;;;3.90;;
56457;SDS011;42360;42.918;12.366;2023-05-27T05:41:47;6.63;;;4.13;;
56457;SDS011;42360;42.918;12.366;2023-05-27T05:44:12;4.88;;;3.40;;
56457;SDS011;42360;42.918;12.366;2023-05-27T05:46:38;5.47;;;4.38;;
56457;SDS011;42360;42.918;12.366;2023-05-27T05:49:04;7.28;;;4.45;;
56457;SDS011;42360;42.918;12.366;2023-05-27T05:51:30;5.35;;;4.68;;
56457;SDS011;42360;42.918;12.366;2023-05-27T05:53:56;5.35;;;4.20;;
56457;SDS011;42360;42.918;12.366;2023-05-27T05:56:24;7.05;;;4.75;;
56457;SDS011;42360;42.918;12.366;2023-05-27T05:58:53;6.72;;;4.18;;
56457;SDS011;42360;42.918;12.366;2023-05-27T06:01:19;8.63;;;4.25;;
56457;SDS011;42360;42.918;12.366;2023-05-27T06:03:44;6.53;;;4.50;;
56457;SDS011;42360;42.918;12.366;2023-05-27T06:06:10;7.93;;;4.75;;
56457;SDS011;42360;42.918;12.366;2023-05-27T06:08:36;9.20;;;4.70;;
56457;SDS011;42360;42.918;12.366;2023-05-27T06:11:01;7.57;;;4.32;;
56457;SDS011;42360;42.918;12.366;2023-05-27T06:13:27;5.70;;;4.88;;
56457;SDS011;42360;42.918;12.366;2023-05-27T06:15:52;5.97;;;4.22;;
56457;SDS011;42360;42.918;12.366;2023-05-27T06:18:20;6.45;;;4.30;;
56457;SDS011;42360;42.918;12.366;2023-05-27T06:20:46;7.07;;;4.60;;
56457;SDS011;42360;42.918;12.366;2023-05-27T06:23:12;7.55;;;5.07;;
56457;SDS011;42360;42.918;12.366;2023-05-27T06:25:37;5.30;;;3.95;;
56457;SDS011;42360;42.918;12.366;2023-05-27T06:28:03;6.82;;;4.35;;
56457;SDS011;42360;42.918;12.366;2023-05-27T06:30:28;6.22;;;4.35;;
56457;SDS011;42360;42.918;12.366;2023-05-27T06:32:54;6.50;;;4.28;;
56457;SDS011;42360;42.918;12.366;2023-05-27T06:35:19;6.30;;;4.28;;
56457;SDS011;42360;42.918;12.366;2023-05-27T06:37:45;6.88;;;4.05;;
56457;SDS011;42360;42.918;12.366;2023-05-27T06:40:10;6.97;;;4.43;;
56457;SDS011;42360;42.918;12.366;2023-05-27T06:42:36;5.82;;;4.30;;
56457;SDS011;42360;42.918;12.366;2023-05-27T06:45:02;6.55;;;4.47;;
56457;SDS011;42360;42.918;12.366;2023-05-27T06:47:28;8.20;;;5.05;;
56457;SDS011;42360;42.918;12.366;2023-05-27T06:49:53;5.70;;;4.05;;
56457;SDS011;42360;42.918;12.366;2023-05-27T06:52:19;5.95;;;4.50;;
56457;SDS011;42360;42.918;12.366;2023-05-27T06:54:45;6.93;;;3.88;;
56457;SDS011;42360;42.918;12.366;2023-05-27T06:57:12;6.50;;;4.53;;
56457;SDS011;42360;42.918;12.366;2023-05-27T06:59:37;7.53;;;4.00;;
56457;SDS011;42360;42.918;12.366;2023-05-27T07:02:03;6.32;;;4.25;;
56457;SDS011;42360;42.918;12.366;2023-05-27T07:04:28;4.53;;;4.13;;
56457;SDS011;42360;42.918;12.366;2023-05-27T07:06:54;6.35;;;4.60;;
56457;SDS011;42360;42.918;12.366;2023-05-27T07:09:19;4.90;;;4.25;;
56457;SDS011;42360;42.918;12.366;2023-05-27T07:11:45;7.70;;;4.80;;
56457;SDS011;42360;42.918;12.366;2023-05-27T07:14:10;6.07;;;4.32;;
56457;SDS011;42360;42.918;12.366;2023-05-27T07:16:36;10.23;;;5.13;;
56457;SDS011;42360;42.918;12.366;2023-05-27T07:19:02;5.85;;;4.38;;
56457;SDS011;42360;42.918;12.366;2023-05-27T07:21:27;5.25;;;4.43;;
56457;SDS011;42360;42.918;12.366;2023-05-27T07:23:53;5.15;;;4.30;;
56457;SDS011;42360;42.918;12.366;2023-05-27T07:26:19;6.90;;;4.65;;
56457;SDS011;42360;42.918;12.366;2023-05-27T07:28:45;6.88;;;4.75;;
56457;SDS011;42360;42.918;12.366;2023-05-27T07:31:11;5.72;;;4.47;;
56457;SDS011;42360;42.918;12.366;2023-05-27T07:33:36;5.70;;;4.22;;
56457;SDS011;42360;42.918;12.366;2023-05-27T07:36:02;6.55;;;4.40;;
56457;SDS011;42360;42.918;12.366;2023-05-27T07:38:27;5.65;;;4.75;;
56457;SDS011;42360;42.918;12.366;2023-05-27T07:40:53;5.15;;;4.57;;
56457;SDS011;42360;42.918;12.366;2023-05-27T07:43:19;6.25;;;4.45;;
56457;SDS011;42360;42.918;12.366;2023-05-27T07:45:44;5.72;;;4.47;;
56457;SDS011;42360;42.918;12.366;2023-05-27T07:48:10;4.80;;;4.30;;
56457;SDS011;42360;42.918;12.366;2023-05-27T07:50:35;6.63;;;4.60;;
56457;SDS011;42360;42.918;12.366;2023-05-27T07:53:01;5.82;;;4.78;;
56457;SDS011;42360;42.918;12.366;2023-05-27T07:55:26;7.95;;;4.57;;
56457;SDS011;42360;42.918;12.366;2023-05-27T07:57:53;6.40;;;5.03;;
56457;SDS011;42360;42.918;12.366;2023-05-27T08:00:20;5.82;;;4.10;;
56457;SDS011;42360;42.918;12.366;2023-05-27T08:02:45;8.85;;;4.68;;
56457;SDS011;42360;42.918;12.366;2023-05-27T08:05:11;5.10;;;4.05;;
56457;SDS011;42360;42.918;12.366;2023-05-27T08:07:36;6.50;;;4.35;;
56457;SDS011;42360;42.918;12.366;2023-05-27T08:10:02;6.05;;;4.72;;
56457;SDS011;42360;42.918;12.366;2023-05-27T08:12:29;6.75;;;4.78;;
56457;SDS011;42360;42.918;12.366;2023-05-27T08:14:54;6.55;;;4.32;;
56457;SDS011;42360;42.918;12.366;2023-05-27T08:17:19;6.93;;;4.78;;
56457;SDS011;42360;42.918;12.366;2023-05-27T08:19:45;5.53;;;4.35;;
56457;SDS011;42360;42.918;12.366;2023-05-27T08:22:11;6.07;;;4.65;;
56457;SDS011;42360;42.918;12.366;2023-05-27T08:24:36;6.22;;;4.40;;
56457;SDS011;42360;42.918;12.366;2023-05-27T08:27:03;6.15;;;4.38;;
56457;SDS011;42360;42.918;12.366;2023-05-27T08:29:31;5.25;;;3.63;;
56457;SDS011;42360;42.918;12.366;2023-05-27T08:31:58;6.05;;;4.65;;
56457;SDS011;42360;42.918;12.366;2023-05-27T08:34:24;6.47;;;4.30;;
56457;SDS011;42360;42.918;12.366;2023-05-27T08:36:51;5.25;;;4.38;;
56457;SDS011;42360;42.918;12.366;2023-05-27T08:39:16;7.93;;;4.30;;
56457;SDS011;42360;42.918;12.366;2023-05-27T08:41:42;4.82;;;4.32;;
56457;SDS011;42360;42.918;12.366;2023-05-27T08:44:08;6.03;;;4.72;;
56457;SDS011;42360;42.918;12.366;2023-05-27T08:46:34;4.85;;;4.07;;
56457;SDS011;42360;42.918;12.366;2023-05-27T08:49:01;6.03;;;4.03;;
56457;SDS011;42360;42.918;12.366;2023-05-27T08:51:26;5.43;;;4.07;;
56457;SDS011;42360;42.918;12.366;2023-05-27T08:53:52;6.28;;;3.90;;
56457;SDS011;42360;42.918;12.366;2023-05-27T08:56:21;5.63;;;3.90;;
56457;SDS011;42360;42.918;12.366;2023-05-27T08:58:47;4.63;;;4.20;;
56457;SDS011;42360;42.918;12.366;2023-05-27T09:01:17;4.93;;;3.88;;
56457;SDS011;42360;42.918;12.366;2023-05-27T09:03:43;4.50;;;4.10;;
56457;SDS011;42360;42.918;12.366;2023-05-27T09:06:10;5.85;;;4.07;;
56457;SDS011;42360;42.918;12.366;2023-05-27T09:08:35;7.15;;;4.35;;
56457;SDS011;42360;42.918;12.366;2023-05-27T09:11:01;9.05;;;4.45;;
56457;SDS011;42360;42.918;12.366;2023-05-27T09:13:30;5.28;;;4.07;;
56457;SDS011;42360;42.918;12.366;2023-05-27T09:15:59;7.45;;;4.07;;
56457;SDS011;42360;42.918;12.366;2023-05-27T09:18:34;6.43;;;4.25;;
56457;SDS011;42360;42.918;12.366;2023-05-27T09:21:00;8.88;;;5.53;;
56457;SDS011;42360;42.918;12.366;2023-05-27T09:23:26;4.57;;;3.58;;
56457;SDS011;42360;42.918;12.366;2023-05-27T09:25:52;4.75;;;4.10;;
56457;SDS011;42360;42.918;12.366;2023-05-27T09:28:24;6.50;;;4.07;;
56457;SDS011;42360;42.918;12.366;2023-05-27T09:31:00;8.50;;;4.50;;
56457;SDS011;42360;42.918;12.366;2023-05-27T09:33:29;5.15;;;4.07;;
56457;SDS011;42360;42.918;12.366;2023-05-27T09:35:57;4.77;;;4.30;;
56457;SDS011;42360;42.918;12.366;2023-05-27T09:38:23;4.50;;;3.85;;
56457;SDS011;42360;42.918;12.366;2023-05-27T09:40:48;6.07;;;4.35;;
56457;SDS011;42360;42.918;12.366;2023-05-27T09:43:14;5.60;;;3.90;;
56457;SDS011;42360;42.918;12.366;2023-05-27T09:45:41;4.45;;;4.00;;
56457;SDS011;42360;42.918;12.366;2023-05-27T09:48:07;5.95;;;3.75;;
56457;SDS011;42360;42.918;12.366;2023-05-27T09:50:34;6.25;;;4.13;;
56457;SDS011;42360;42.918;12.366;2023-05-27T09:53:00;6.20;;;4.20;;
56457;SDS011;42360;42.918;12.366;2023-05-27T09:55:27;4.32;;;3.92;;
56457;SDS011;42360;42.918;12.366;2023-05-27T09:57:53;5.82;;;4.03;;
56457;SDS011;42360;42.918;12.366;2023-05-27T10:00:19;6.40;;;4.35;;
56457;SDS011;42360;42.918;12.366;2023-05-27T10:02:46;6.70;;;4.35;;
56457;SDS011;42360;42.918;12.366;2023-05-27T10:05:13;5.47;;;4.20;;
56457;SDS011;42360;42.918;12.366;2023-05-27T10:07:42;5.90;;;4.15;;
56457;SDS011;42360;42.918;12.366;2023-05-27T10:10:09;6.75;;;4.03;;
56457;SDS011;42360;42.918;12.366;2023-05-27T10:12:36;6.75;;;3.55;;
56457;SDS011;42360;42.918;12.366;2023-05-27T10:15:03;5.65;;;4.05;;
56457;SDS011;42360;42.918;12.366;2023-05-27T10:20:24;6.70;;;3.97;;
56457;SDS011;42360;42.918;12.366;2023-05-27T10:22:52;4.93;;;4.18;;
56457;SDS011;42360;42.918;12.366;2023-05-27T10:25:17;5.68;;;3.83;;
56457;SDS011;42360;42.918;12.366;2023-05-27T10:27:43;5.65;;;3.83;;
56457;SDS011;42360;42.918;12.366;2023-05-27T10:30:10;6.72;;;3.95;;
56457;SDS011;42360;42.918;12.366;2023-05-27T10:32:43;4.93;;;3.97;;
56457;SDS011;42360;42.918;12.366;2023-05-27T10:35:17;5.10;;;3.53;;
56457;SDS011;42360;42.918;12.366;2023-05-27T10:37:43;5.93;;;4.65;;
56457;SDS011;42360;42.918;12.366;2023-05-27T10:40:09;6.95;;;4.00;;
56457;SDS011;42360;42.918;12.366;2023-05-27T10:42:35;5.50;;;3.85;;
56457;SDS011;42360;42.918;12.366;2023-05-27T10:45:02;4.40;;;3.97;;
56457;SDS011;42360;42.918;12.366;2023-05-27T10:49:59;5.00;;;3.70;;
56457;SDS011;42360;42.918;12.366;2023-05-27T10:52:37;4.40;;;3.55;;
56457;SDS011;42360;42.918;12.366;2023-05-27T10:55:04;7.50;;;3.47;;
56457;SDS011;42360;42.918;12.366;2023-05-27T10:57:30;6.85;;;3.65;;
56457;SDS011;42360;42.918;12.366;2023-05-27T10:59:55;6.43;;;3.60;;
56457;SDS011;42360;42.918;12.366;2023-05-27T11:02:29;6.78;;;3.70;;
56457;SDS011;42360;42.918;12.366;2023-05-27T11:05:00;4.40;;;3.55;;
56457;SDS011;42360;42.918;12.366;2023-05-27T11:07:26;3.85;;;3.42;;
56457;SDS011;42360;42.918;12.366;2023-05-27T11:09:52;5.72;;;3.78;;
56457;SDS011;42360;42.918;12.366;2023-05-27T11:12:23;3.85;;;3.45;;
56457;SDS011;42360;42.918;12.366;2023-05-27T11:17:18;4.68;;;3.50;;
56457;SDS011;42360;42.918;12.366;2023-05-27T11:19:45;4.82;;;3.40;;
56457;SDS011;42360;42.918;12.366;2023-05-27T11:22:11;5.68;;;3.75;;
56457;SDS011;42360;42.918;12.366;2023-05-27T11:24:37;4.25;;;3.70;;
56457;SDS011;42360;42.918;12.366;2023-05-27T11:27:12;4.18;;;3.35;;
56457;SDS011;42360;42.918;12.366;2023-05-27T11:29:39;5.10;;;3.47;;
56457;SDS011;42360;42.918;12.366;2023-05-27T11:32:06;3.97;;;3.58;;
56457;SDS011;42360;42.918;12.366;2023-05-27T11:34:35;6.05;;;3.83;;
56457;SDS011;42360;42.918;12.366;2023-05-27T11:37:01;4.32;;;3.42;;
56457;SDS011;42360;42.918;12.366;2023-05-27T11:39:30;4.93;;;3.42;;
56457;SDS011;42360;42.918;12.366;2023-05-27T11:41:56;4.60;;;3.33;;
56457;SDS011;42360;42.918;12.366;2023-05-27T11:44:22;4.47;;;3.55;;
56457;SDS011;42360;42.918;12.366;2023-05-27T11:46:49;4.32;;;3.47;;
56457;SDS011;42360;42.918;12.366;2023-05-27T11:49:16;4.32;;;3.28;;
56457;SDS011;42360;42.918;12.366;2023-05-27T11:51:43;4.07;;;3.33;;
56457;SDS011;42360;42.918;12.366;2023-05-27T11:56:48;3.85;;;3.22;;
56457;SDS011;42360;42.918;12.366;2023-05-27T11:59:14;4.88;;;3.42;;
56457;SDS011;42360;42.918;12.366;2023-05-27T12:01:43;4.63;;;3.20;;
56457;SDS011;42360;42.918;12.366;2023-05-27T12:04:09;5.63;;;3.88;;
56457;SDS011;42360;42.918;12.366;2023-05-27T12:06:35;5.65;;;3.22;;
56457;SDS011;42360;42.918;12.366;2023-05-27T12:09:02;6.47;;;3.25;;
56457;SDS011;42360;42.918;12.366;2023-05-27T12:11:32;4.07;;;3.23;;
56457;SDS011;42360;42.918;12.366;2023-05-27T12:13:58;4.80;;;3.38;;
56457;SDS011;42360;42.918;12.366;2023-05-27T12:16:23;4.70;;;3.22;;
56457;SDS011;42360;42.918;12.366;2023-05-27T12:18:49;4.30;;;3.30;;
56457;SDS011;42360;42.918;12.366;2023-05-27T12:21:15;5.40;;;3.55;;
56457;SDS011;42360;42.918;12.366;2023-05-27T12:23:41;4.90;;;3.03;;
56457;SDS011;42360;42.918;12.366;2023-05-27T12:26:07;6.15;;;3.13;;
56457;SDS011;42360;42.918;12.366;2023-05-27T12:28:32;4.50;;;3.28;;
56457;SDS011;42360;42.918;12.366;2023-05-27T12:30:58;3.95;;;3.28;;
56457;SDS011;42360;42.918;12.366;2023-05-27T12:33:23;4.13;;;3.55;;
56457;SDS011;42360;42.918;12.366;2023-05-27T12:35:49;3.60;;;3.30;;
56457;SDS011;42360;42.918;12.366;2023-05-27T12:38:15;5.65;;;3.05;;
56457;SDS011;42360;42.918;12.366;2023-05-27T12:40:40;3.70;;;3.33;;
56457;SDS011;42360;42.918;12.366;2023-05-27T12:43:06;4.95;;;3.83;;
56457;SDS011;42360;42.918;12.366;2023-05-27T12:45:32;6.18;;;3.60;;
56457;SDS011;42360;42.918;12.366;2023-05-27T12:47:58;5.75;;;3.67;;
56457;SDS011;42360;42.918;12.366;2023-05-27T12:50:24;4.95;;;3.65;;
56457;SDS011;42360;42.918;12.366;2023-05-27T12:52:49;6.20;;;3.30;;
56457;SDS011;42360;42.918;12.366;2023-05-27T12:55:17;3.72;;;3.15;;
56457;SDS011;42360;42.918;12.366;2023-05-27T12:57:44;3.75;;;3.05;;
56457;SDS011;42360;42.918;12.366;2023-05-27T13:00:11;4.63;;;3.65;;
56457;SDS011;42360;42.918;12.366;2023-05-27T13:02:37;4.95;;;3.45;;
56457;SDS011;42360;42.918;12.366;2023-05-27T13:05:04;5.75;;;3.42;;
56457;SDS011;42360;42.918;12.366;2023-05-27T13:07:31;4.65;;;3.70;;
56457;SDS011;42360;42.918;12.366;2023-05-27T13:09:59;4.80;;;3.05;;
56457;SDS011;42360;42.918;12.366;2023-05-27T13:12:29;3.75;;;3.08;;
56457;SDS011;42360;42.918;12.366;2023-05-27T13:14:55;5.18;;;2.90;;
56457;SDS011;42360;42.918;12.366;2023-05-27T13:17:22;5.25;;;3.50;;
56457;SDS011;42360;42.918;12.366;2023-05-27T13:19:47;3.53;;;3.22;;
56457;SDS011;42360;42.918;12.366;2023-05-27T13:22:13;4.88;;;3.63;;
56457;SDS011;42360;42.918;12.366;2023-05-27T13:24:40;6.90;;;3.85;;
56457;SDS011;42360;42.918;12.366;2023-05-27T13:27:06;3.85;;;3.17;;
56457;SDS011;42360;42.918;12.366;2023-05-27T13:29:31;5.93;;;3.53;;
56457;SDS011;42360;42.918;12.366;2023-05-27T13:31:57;4.28;;;3.85;;
56457;SDS011;42360;42.918;12.366;2023-05-27T13:34:23;7.22;;;4.45;;
56457;SDS011;42360;42.918;12.366;2023-05-27T13:36:49;5.60;;;3.75;;
56457;SDS011;42360;42.918;12.366;2023-05-27T13:39:14;5.63;;;3.60;;
56457;SDS011;42360;42.918;12.366;2023-05-27T13:41:40;5.25;;;3.50;;
56457;SDS011;42360;42.918;12.366;2023-05-27T13:44:05;3.67;;;3.38;;
56457;SDS011;42360;42.918;12.366;2023-05-27T13:46:31;4.50;;;3.60;;
56457;SDS011;42360;42.918;12.366;2023-05-27T13:48:57;4.30;;;3.35;;
56457;SDS011;42360;42.918;12.366;2023-05-27T13:51:22;5.03;;;4.10;;
56457;SDS011;42360;42.918;12.366;2023-05-27T13:53:48;5.32;;;4.13;;
56457;SDS011;42360;42.918;12.366;2023-05-27T13:56:16;4.72;;;3.65;;
56457;SDS011;42360;42.918;12.366;2023-05-27T13:58:41;4.88;;;3.42;;
56457;SDS011;42360;42.918;12.366;2023-05-27T14:01:07;5.35;;;3.80;;
56457;SDS011;42360;42.918;12.366;2023-05-27T14:03:32;5.38;;;3.83;;
56457;SDS011;42360;42.918;12.366;2023-05-27T14:05:58;4.45;;;3.72;;
56457;SDS011;42360;42.918;12.366;2023-05-27T14:08:23;5.10;;;3.50;;
56457;SDS011;42360;42.918;12.366;2023-05-27T14:10:49;4.07;;;3.45;;
56457;SDS011;42360;42.918;12.366;2023-05-27T14:13:15;4.50;;;3.60;;
56457;SDS011;42360;42.918;12.366;2023-05-27T14:15:40;6.72;;;3.63;;
56457;SDS011;42360;42.918;12.366;2023-05-27T14:18:06;5.50;;;3.75;;
56457;SDS011;42360;42.918;12.366;2023-05-27T14:20:32;6.30;;;4.38;;
56457;SDS011;42360;42.918;12.366;2023-05-27T14:22:58;4.35;;;3.70;;
56457;SDS011;42360;42.918;12.366;2023-05-27T14:25:25;4.45;;;3.53;;
56457;SDS011;42360;42.918;12.366;2023-05-27T14:27:50;6.22;;;3.83;;
56457;SDS011;42360;42.918;12.366;2023-05-27T14:30:16;6.25;;;3.83;;
56457;SDS011;42360;42.918;12.366;2023-05-27T14:32:41;4.32;;;3.80;;
56457;SDS011;42360;42.918;12.366;2023-05-27T14:35:07;6.28;;;4.00;;
56457;SDS011;42360;42.918;12.366;2023-05-27T14:37:33;5.47;;;4.13;;
56457;SDS011;42360;42.918;12.366;2023-05-27T14:39:59;5.05;;;3.65;;
56457;SDS011;42360;42.918;12.366;2023-05-27T14:42:25;5.18;;;4.00;;
56457;SDS011;42360;42.918;12.366;2023-05-27T14:44:51;4.82;;;3.67;;
56457;SDS011;42360;42.918;12.366;2023-05-27T14:47:16;4.72;;;3.70;;
56457;SDS011;42360;42.918;12.366;2023-05-27T14:49:43;5.70;;;4.10;;